createdAt,value
2022-10-29T00:05:25.516Z,13.6
2022-10-29T00:11:25.568Z,13.6
2022-10-29T00:17:25.605Z,13.5
2022-10-29T00:23:25.531Z,13.6
2022-10-29T00:29:25.584Z,13.5
2022-10-29T00:35:25.562Z,13.6
2022-10-29T00:41:25.577Z,13.6
2022-10-29T00:47:25.586Z,13.5
2022-10-29T00:53:25.565Z,13.7
2022-10-29T00:59:25.544Z,13.7
2022-10-29T01:05:25.584Z,13.7
2022-10-29T01:11:25.530Z,13.7
2022-10-29T01:17:25.558Z,13.8
2022-10-29T01:23:25.558Z,13.8
2022-10-29T01:29:25.543Z,13.8
2022-10-29T01:35:25.574Z,13.8
2022-10-29T01:41:25.618Z,13.9
2022-10-29T01:47:25.572Z,13.7
2022-10-29T01:53:25.568Z,13.8
2022-10-29T01:59:35.756Z,13.9
2022-10-29T02:05:25.558Z,13.8
2022-10-29T02:11:25.565Z,13.7
2022-10-29T02:17:25.644Z,13.6
2022-10-29T02:23:25.566Z,13.6
2022-10-29T02:29:25.544Z,13.6
2022-10-29T02:35:25.591Z,13.6
2022-10-29T02:41:25.855Z,13.6
2022-10-29T02:47:25.565Z,13.5
2022-10-29T02:53:25.609Z,13.5
2022-10-29T02:59:25.615Z,13.4
2022-10-29T03:05:25.600Z,13.5
2022-10-29T03:11:25.597Z,13.4
2022-10-29T03:17:25.555Z,13.3
2022-10-29T03:23:25.576Z,13.3
2022-10-29T03:29:25.579Z,13.3
2022-10-29T03:35:25.600Z,13.3
2022-10-29T03:41:25.562Z,13.2
2022-10-29T03:47:25.591Z,13.3
2022-10-29T03:53:25.580Z,13.2
2022-10-29T03:59:25.555Z,13.3
2022-10-29T04:05:25.583Z,13.3
2022-10-29T04:11:25.598Z,13.3
2022-10-29T04:17:25.591Z,13.3
2022-10-29T04:29:25.572Z,13.4
2022-10-29T04:35:25.579Z,13.4
2022-10-29T04:41:25.590Z,13.2
2022-10-29T04:47:25.579Z,13.1
2022-10-29T04:53:25.576Z,13.1
2022-10-29T04:59:25.653Z,13.1
2022-10-29T05:05:25.559Z,12.9
2022-10-29T05:11:25.673Z,12.8
2022-10-29T05:17:25.628Z,12.9
2022-10-29T05:23:25.555Z,12.8
2022-10-29T05:29:25.593Z,12.9
2022-10-29T05:35:25.589Z,12.7
2022-10-29T05:41:25.575Z,12.9
2022-10-29T05:47:25.602Z,12.9
2022-10-29T05:53:25.601Z,13
2022-10-29T05:59:29.727Z,13.1
2022-10-29T06:05:25.584Z,13
2022-10-29T06:11:25.598Z,13.1
2022-10-29T06:17:25.584Z,13.1
2022-10-29T06:23:25.583Z,13.2
2022-10-29T06:29:25.610Z,13.2
2022-10-29T06:35:25.662Z,13.2
2022-10-29T06:41:25.607Z,13.3
2022-10-29T06:47:25.656Z,13.2
2022-10-29T06:53:25.599Z,13.3
2022-10-29T06:59:25.592Z,13.3
2022-10-29T07:05:25.625Z,13.5
2022-10-29T07:11:25.596Z,13.5
2022-10-29T07:17:25.590Z,13.7
2022-10-29T07:23:25.659Z,13.7
2022-10-29T07:29:25.590Z,13.7
2022-10-29T07:35:25.602Z,13.7
2022-10-29T07:41:25.610Z,13.8
2022-10-29T07:47:25.575Z,13.9
2022-10-29T07:53:25.605Z,13.9
2022-10-29T07:59:25.617Z,13.9
2022-10-29T08:05:25.588Z,13.9
2022-10-29T08:11:25.627Z,13.8
2022-10-29T08:17:25.623Z,13.8
2022-10-29T08:23:25.602Z,13.9
2022-10-29T08:29:25.595Z,13.8
2022-10-29T08:35:25.630Z,14.1
2022-10-29T08:41:25.594Z,14.1
2022-10-29T08:47:25.601Z,14
2022-10-29T08:53:28.658Z,14
2022-10-29T08:59:25.605Z,13.8
2022-10-29T09:05:25.616Z,13.7
2022-10-29T09:11:25.623Z,13.5
2022-10-29T09:17:25.620Z,13.5
2022-10-29T09:23:25.606Z,13.5
2022-10-29T09:29:25.627Z,13.5
2022-10-29T09:35:25.617Z,13.6
2022-10-29T09:41:25.638Z,13.6
2022-10-29T09:47:25.641Z,13.5
2022-10-29T09:53:25.622Z,13.7
2022-10-29T09:59:25.637Z,13.4
2022-10-29T10:05:25.655Z,13.6
2022-10-29T10:11:25.646Z,13.6
2022-10-29T10:17:25.675Z,13.5
2022-10-29T10:23:25.673Z,13.5
2022-10-29T10:29:25.646Z,13.5
2022-10-29T10:35:25.655Z,13.3
2022-10-29T10:41:25.722Z,13.4
2022-10-29T10:47:25.613Z,13.5
2022-10-29T10:53:25.623Z,13.4
2022-10-29T10:59:25.665Z,13.3
2022-10-29T11:05:25.699Z,13.8
2022-10-29T11:11:25.646Z,13.4
2022-10-29T11:17:25.666Z,13.5
2022-10-29T11:23:25.648Z,13.4
2022-10-29T11:29:25.624Z,13.4
2022-10-29T11:35:25.667Z,13.2
2022-10-29T11:41:25.642Z,13.4
2022-10-29T11:47:25.656Z,13.5
2022-10-29T11:53:25.685Z,13.4
2022-10-29T11:59:25.613Z,13.5
2022-10-29T12:05:25.662Z,13.4
2022-10-29T12:11:25.742Z,13.5
2022-10-29T12:17:25.697Z,13.4
2022-10-29T12:23:25.631Z,13.4
2022-10-29T12:29:25.725Z,13.5
2022-10-29T12:35:25.633Z,13.4
2022-10-29T12:41:25.690Z,13.4
2022-10-29T12:47:25.660Z,13.4
2022-10-29T12:53:25.637Z,13.4
2022-10-29T12:59:25.661Z,13.5
2022-10-29T13:05:25.671Z,13.4
2022-10-29T13:11:25.688Z,13.3
2022-10-29T13:17:25.658Z,13.4
2022-10-29T13:23:25.676Z,13.5
2022-10-29T13:29:25.680Z,13.3
2022-10-29T13:35:25.655Z,13.3
2022-10-29T13:41:25.673Z,13.4
2022-10-29T13:47:25.670Z,13.3
2022-10-29T13:53:25.674Z,13.3
2022-10-29T13:59:25.693Z,13.3
2022-10-29T14:05:25.658Z,13.3
2022-10-29T14:11:25.667Z,13.2
2022-10-29T14:17:25.722Z,13.2
2022-10-29T14:23:25.714Z,13.2
2022-10-29T14:29:25.673Z,13.3
2022-10-29T14:35:25.689Z,13
2022-10-29T14:41:25.660Z,13.1
2022-10-29T14:47:29.006Z,13.1
2022-10-29T14:53:25.710Z,13
2022-10-29T14:59:28.217Z,13
2022-10-29T15:05:25.948Z,13.2
2022-10-29T15:11:25.704Z,13.2
2022-10-29T15:17:25.713Z,13.2
2022-10-29T15:23:25.702Z,13.1
2022-10-29T15:29:30.550Z,13.3
2022-10-29T15:35:25.687Z,13.1
2022-10-29T15:41:25.708Z,12.7
2022-10-29T15:47:25.697Z,12.7
2022-10-29T15:53:25.687Z,12.9
2022-10-29T15:59:25.700Z,12.9
2022-10-29T16:05:25.705Z,12.9
2022-10-29T16:11:25.695Z,12.9
2022-10-29T16:17:25.721Z,12.8
2022-10-29T16:23:25.704Z,12.7
2022-10-29T16:29:25.706Z,12.6
2022-10-29T16:35:25.694Z,12.4
2022-10-29T16:41:25.789Z,12.4
2022-10-29T16:47:25.697Z,12.4
2022-10-29T16:53:25.723Z,12.3
2022-10-29T16:59:25.714Z,12.2
2022-10-29T17:05:25.693Z,12.1
2022-10-29T17:11:25.702Z,12.1
2022-10-29T17:17:25.729Z,11.9
2022-10-29T17:23:25.699Z,11.8
2022-10-29T17:29:25.701Z,11.7
2022-10-29T17:35:25.744Z,11.6
2022-10-29T17:41:25.726Z,11.6
2022-10-29T17:47:25.782Z,11.5
2022-10-29T17:53:25.725Z,11.4
2022-10-29T17:59:25.702Z,11.5
2022-10-29T18:05:25.702Z,11.5
2022-10-29T18:11:25.722Z,11.5
2022-10-29T18:17:25.716Z,11.3
2022-10-29T18:23:25.715Z,11.3
2022-10-29T18:29:25.740Z,11.3
2022-10-29T18:35:25.699Z,11.2
2022-10-29T18:41:25.718Z,11.2
2022-10-29T18:47:25.746Z,11.1
2022-10-29T18:53:25.720Z,11.2
2022-10-29T18:59:25.709Z,11.1
2022-10-29T19:05:25.729Z,11.1
2022-10-29T19:11:25.717Z,11.2
2022-10-29T19:17:25.733Z,11.1
2022-10-29T19:23:25.728Z,11.1
2022-10-29T19:29:25.730Z,11.1
2022-10-29T19:35:25.753Z,11
2022-10-29T19:41:25.747Z,11
2022-10-29T19:47:25.729Z,11
2022-10-29T19:53:25.720Z,11
2022-10-29T19:59:25.770Z,11
2022-10-29T20:05:25.785Z,11
2022-10-29T20:11:25.729Z,11.1
2022-10-29T20:17:25.748Z,11.1
2022-10-29T20:23:25.885Z,11.1
2022-10-29T20:29:25.739Z,11
2022-10-29T20:35:25.784Z,11
2022-10-29T20:41:25.754Z,11
2022-10-29T20:47:25.743Z,11.1
2022-10-29T20:53:25.777Z,11.2
2022-10-29T20:59:25.773Z,11.2
2022-10-29T21:05:25.730Z,11.2
2022-10-29T21:11:25.753Z,11.2
2022-10-29T21:17:25.743Z,11.2
2022-10-29T21:23:25.823Z,11.3
2022-10-29T21:29:25.811Z,11.2
2022-10-29T21:35:25.757Z,11.3
2022-10-29T21:41:25.760Z,11.2
2022-10-29T21:47:25.758Z,11.3
2022-10-29T21:53:25.746Z,11.2
2022-10-29T21:59:25.786Z,11.3
2022-10-29T22:05:25.763Z,11.2
2022-10-29T22:11:25.767Z,11.3
2022-10-29T22:17:25.742Z,11.3
2022-10-29T22:23:25.811Z,11.4
2022-10-29T22:29:25.762Z,11.3
2022-10-29T22:35:25.744Z,11.3
2022-10-29T22:41:25.928Z,11.2
2022-10-29T22:47:25.792Z,11.2
2022-10-29T22:53:25.739Z,11.2
2022-10-29T22:59:25.779Z,11.2
2022-10-29T23:05:25.776Z,11.2
2022-10-29T23:11:25.795Z,11.2
2022-10-29T23:17:25.796Z,11.2
2022-10-29T23:23:25.770Z,11.3
2022-10-29T23:29:25.774Z,11.2
2022-10-29T23:35:25.785Z,11.3
2022-10-29T23:41:25.763Z,11.3
2022-10-29T23:47:25.779Z,11.3
2022-10-29T23:53:25.791Z,11.3
2022-10-29T23:59:25.760Z,11.3
